createdAt,value
2024-01-26T00:01:15.003Z,33.30
2024-01-26T00:03:42.771Z,29.20
2024-01-26T00:06:10.364Z,28.10
2024-01-26T00:08:37.886Z,26.77
2024-01-26T00:11:05.548Z,29.33
2024-01-26T00:13:33.263Z,23.53
2024-01-26T00:16:00.694Z,35.20
2024-01-26T00:18:28.264Z,23.97
2024-01-26T00:20:55.663Z,39.30
2024-01-26T00:23:23.048Z,47.27
2024-01-26T00:25:50.511Z,26.53
2024-01-26T00:28:17.921Z,36.60
2024-01-26T00:30:45.530Z,33.87
2024-01-26T00:33:13.604Z,37.90
2024-01-26T00:35:41.156Z,43.23
2024-01-26T00:38:08.585Z,29.67
2024-01-26T00:40:35.982Z,38.60
2024-01-26T00:43:03.442Z,40.87
2024-01-26T00:45:30.885Z,39.27
2024-01-26T00:47:58.354Z,48.93
2024-01-26T00:50:26.600Z,35.93
2024-01-26T00:52:54.098Z,33.63
2024-01-26T00:55:21.570Z,43.23
2024-01-26T00:57:48.944Z,42.93
2024-01-26T01:00:17.899Z,35.00
2024-01-26T01:02:45.371Z,36.57
2024-01-26T01:05:12.849Z,32.13
2024-01-26T01:07:40.230Z,41.57
2024-01-26T01:10:09.033Z,42.67
2024-01-26T01:12:36.459Z,35.97
2024-01-26T01:15:05.417Z,37.37
2024-01-26T01:17:33.823Z,41.07
2024-01-26T01:20:01.329Z,32.37
2024-01-26T01:22:29.470Z,40.60
2024-01-26T01:24:56.892Z,31.57
2024-01-26T01:27:24.208Z,31.33
2024-01-26T01:29:51.869Z,34.63
2024-01-26T01:32:19.228Z,29.67
2024-01-26T01:34:46.610Z,37.73
2024-01-26T01:37:13.962Z,41.50
2024-01-26T01:39:41.381Z,29.20
2024-01-26T01:42:15.513Z,40.90
2024-01-26T01:44:47.261Z,40.70
2024-01-26T01:47:16.934Z,34.53
2024-01-26T01:49:45.844Z,28.37
2024-01-26T01:52:17.843Z,28.73
2024-01-26T01:54:46.126Z,38.70
2024-01-26T01:57:16.233Z,47.47
2024-01-26T01:59:43.589Z,40.93
2024-01-26T02:02:11.067Z,44.07
2024-01-26T02:04:38.858Z,37.03
2024-01-26T02:07:06.909Z,38.83
2024-01-26T02:09:34.439Z,38.07
2024-01-26T02:12:02.051Z,37.73
2024-01-26T02:14:29.531Z,50.13
2024-01-26T02:17:02.831Z,46.47
2024-01-26T02:19:33.843Z,33.37
2024-01-26T02:22:01.206Z,43.03
2024-01-26T02:24:28.538Z,52.50
2024-01-26T02:26:56.049Z,40.97
2024-01-26T02:29:23.479Z,32.83
2024-01-26T02:31:50.963Z,36.93
2024-01-26T02:34:18.719Z,32.37
2024-01-26T02:36:46.258Z,28.50
2024-01-26T02:39:13.633Z,30.30
2024-01-26T02:41:41.993Z,48.97
2024-01-26T02:44:10.743Z,39.00
2024-01-26T02:46:38.228Z,32.57
2024-01-26T02:49:07.517Z,43.40
2024-01-26T02:51:34.906Z,48.97
2024-01-26T02:54:04.242Z,26.03
2024-01-26T02:56:31.757Z,39.70
2024-01-26T02:58:59.171Z,21.00
2024-01-26T03:01:26.806Z,27.63
2024-01-26T03:03:54.570Z,38.73
2024-01-26T03:06:22.089Z,37.63
2024-01-26T03:08:49.716Z,52.00
2024-01-26T03:11:17.138Z,63.70
2024-01-26T03:13:44.464Z,50.90
2024-01-26T03:16:12.640Z,42.03
2024-01-26T03:18:40.241Z,38.70
2024-01-26T03:21:07.715Z,38.37
2024-01-26T03:23:35.276Z,30.67
2024-01-26T03:26:02.633Z,43.97
2024-01-26T03:28:31.240Z,31.70
2024-01-26T03:30:58.624Z,34.63
2024-01-26T03:33:26.231Z,30.23
2024-01-26T03:35:56.627Z,70.37
2024-01-26T03:38:24.142Z,39.23
2024-01-26T03:40:51.461Z,21.47
2024-01-26T03:43:19.181Z,30.30
2024-01-26T03:45:46.515Z,22.83
2024-01-26T03:48:15.363Z,22.83
2024-01-26T03:50:42.830Z,19.13
2024-01-26T03:53:10.272Z,29.77
2024-01-26T03:55:39.146Z,28.73
2024-01-26T03:58:06.563Z,39.00
2024-01-26T04:00:34.040Z,35.87
2024-01-26T04:03:02.125Z,24.80
2024-01-26T04:05:29.515Z,29.97
2024-01-26T04:07:56.982Z,32.53
2024-01-26T04:10:24.417Z,33.40
2024-01-26T04:12:51.780Z,45.20
2024-01-26T04:15:20.331Z,48.70
2024-01-26T04:17:47.820Z,44.40
2024-01-26T04:20:15.911Z,32.07
2024-01-26T04:22:44.350Z,46.57
2024-01-26T04:25:12.757Z,37.90
2024-01-26T04:27:40.157Z,36.67
2024-01-26T04:30:08.662Z,39.93
2024-01-26T04:32:38.180Z,36.80
2024-01-26T04:35:06.514Z,28.33
2024-01-26T04:37:34.197Z,37.20
2024-01-26T04:40:01.594Z,24.33
2024-01-26T04:42:29.082Z,44.03
2024-01-26T04:44:57.753Z,31.63
2024-01-26T04:47:25.344Z,35.00
2024-01-26T04:49:52.913Z,39.90
2024-01-26T04:52:20.318Z,39.57
2024-01-26T04:54:48.459Z,35.53
2024-01-26T04:57:16.134Z,46.07
2024-01-26T04:59:43.631Z,38.83
2024-01-26T05:02:11.203Z,43.77
2024-01-26T05:04:38.616Z,34.13
2024-01-26T05:07:06.284Z,37.20
2024-01-26T05:09:33.899Z,44.70
2024-01-26T05:12:01.491Z,53.07
2024-01-26T05:14:28.936Z,34.70
2024-01-26T05:16:56.338Z,23.77
2024-01-26T05:19:23.775Z,43.33
2024-01-26T05:21:51.240Z,36.47
2024-01-26T05:24:18.621Z,51.33
2024-01-26T05:26:46.618Z,53.83
2024-01-26T05:29:16.168Z,42.07
2024-01-26T05:31:43.682Z,49.37
2024-01-26T05:34:11.252Z,45.27
2024-01-26T05:36:43.391Z,49.77
2024-01-26T05:39:12.043Z,38.97
2024-01-26T05:41:39.892Z,47.90
2024-01-26T05:44:08.050Z,36.97
2024-01-26T05:46:35.561Z,39.30
2024-01-26T05:49:06.399Z,46.40
2024-01-26T05:51:35.642Z,42.47
2024-01-26T05:54:03.603Z,38.57
2024-01-26T05:56:31.028Z,39.03
2024-01-26T05:58:58.570Z,39.70
2024-01-26T06:01:26.491Z,32.43
2024-01-26T06:03:53.976Z,37.60
2024-01-26T06:06:21.507Z,35.37
2024-01-26T06:08:49.482Z,34.13
2024-01-26T06:11:18.631Z,24.40
2024-01-26T06:13:46.340Z,35.97
2024-01-26T06:16:16.816Z,26.47
2024-01-26T06:18:45.662Z,39.13
2024-01-26T06:21:13.728Z,41.53
2024-01-26T06:23:42.987Z,34.10
2024-01-26T06:26:10.446Z,28.70
2024-01-26T06:28:37.856Z,32.07
2024-01-26T06:31:05.325Z,37.97
2024-01-26T06:33:32.961Z,28.33
2024-01-26T06:36:00.491Z,26.70
2024-01-26T06:38:28.247Z,33.83
2024-01-26T06:40:55.858Z,36.57
2024-01-26T06:43:23.413Z,25.03
2024-01-26T06:45:50.763Z,35.00
2024-01-26T06:48:18.354Z,31.17
2024-01-26T06:50:46.042Z,34.03
2024-01-26T06:53:13.563Z,42.83
2024-01-26T06:55:42.313Z,46.53
2024-01-26T06:58:09.757Z,33.53
2024-01-26T07:00:37.211Z,31.97
2024-01-26T07:03:11.600Z,34.57
2024-01-26T07:05:40.654Z,33.97
2024-01-26T07:08:09.330Z,25.07
2024-01-26T07:10:36.782Z,23.70
2024-01-26T07:13:04.604Z,35.63
2024-01-26T07:15:33.097Z,35.80
2024-01-26T07:18:00.571Z,34.87
2024-01-26T07:20:29.494Z,30.10
2024-01-26T07:22:57.383Z,32.53
2024-01-26T07:25:24.753Z,33.90
2024-01-26T07:27:52.142Z,32.63
2024-01-26T07:30:20.534Z,33.63
2024-01-26T07:32:48.085Z,33.07
2024-01-26T07:35:15.771Z,32.90
2024-01-26T07:37:43.261Z,38.23
2024-01-26T07:40:11.605Z,34.67
2024-01-26T07:42:39.130Z,29.93
2024-01-26T07:45:06.923Z,44.17
2024-01-26T07:47:36.678Z,38.57
2024-01-26T07:50:08.001Z,36.80
2024-01-26T07:52:35.341Z,39.70
2024-01-26T07:55:02.691Z,33.97
2024-01-26T07:57:30.065Z,33.27
2024-01-26T07:59:57.621Z,36.53
2024-01-26T08:02:25.392Z,35.83
2024-01-26T08:04:55.729Z,36.37
2024-01-26T08:07:23.813Z,36.27
2024-01-26T08:09:51.480Z,27.43
2024-01-26T08:12:29.343Z,36.63
2024-01-26T08:17:36.000Z,32.33
2024-01-26T08:20:05.144Z,26.30
2024-01-26T08:22:34.097Z,30.13
2024-01-26T08:25:02.137Z,39.87
2024-01-26T08:27:29.979Z,31.23
2024-01-26T08:29:57.686Z,31.57
2024-01-26T08:32:25.185Z,32.10
2024-01-26T08:34:52.954Z,25.70
2024-01-26T08:37:20.809Z,31.20
2024-01-26T08:39:48.367Z,27.33
2024-01-26T08:42:16.085Z,33.37
2024-01-26T08:44:43.908Z,33.97
2024-01-26T08:47:11.332Z,24.87
2024-01-26T08:49:39.035Z,31.53
2024-01-26T08:52:07.091Z,32.43
2024-01-26T08:54:34.507Z,28.47
2024-01-26T08:57:02.151Z,29.13
2024-01-26T08:59:30.452Z,34.97
2024-01-26T09:01:57.892Z,29.30
2024-01-26T09:04:25.438Z,31.67
2024-01-26T09:06:59.959Z,32.27
2024-01-26T09:09:32.457Z,26.83
2024-01-26T09:12:00.079Z,30.07
2024-01-26T09:14:27.522Z,35.53
2024-01-26T09:16:54.987Z,28.40
2024-01-26T09:19:22.610Z,28.47
2024-01-26T09:21:52.680Z,38.40
2024-01-26T09:24:20.354Z,30.37
2024-01-26T09:26:47.928Z,25.80
2024-01-26T09:29:15.508Z,23.73
2024-01-26T09:31:43.042Z,29.30
2024-01-26T09:34:10.724Z,24.70
2024-01-26T09:36:38.221Z,30.07
2024-01-26T09:39:06.381Z,29.70
2024-01-26T09:41:34.117Z,24.50
2024-01-26T09:44:01.674Z,28.77
2024-01-26T09:46:32.304Z,23.10
2024-01-26T09:49:00.811Z,25.63
2024-01-26T09:51:29.058Z,21.23
2024-01-26T09:54:01.991Z,29.63
2024-01-26T09:56:33.219Z,29.07
2024-01-26T09:59:01.947Z,23.67
2024-01-26T10:01:30.119Z,25.63
2024-01-26T10:03:58.416Z,28.43
2024-01-26T10:06:26.464Z,26.60
2024-01-26T10:08:54.501Z,20.17
2024-01-26T10:11:21.922Z,24.50
2024-01-26T10:13:49.456Z,22.70
2024-01-26T10:16:16.866Z,31.40
2024-01-26T10:18:48.233Z,25.07
2024-01-26T10:21:18.694Z,24.47
2024-01-26T10:23:48.210Z,21.50
2024-01-26T10:26:15.875Z,24.43
2024-01-26T10:28:44.816Z,22.50
2024-01-26T10:31:12.537Z,25.10
2024-01-26T10:33:46.718Z,25.07
2024-01-26T10:36:17.140Z,21.93
2024-01-26T10:38:52.251Z,25.27
2024-01-26T10:41:22.800Z,26.40
2024-01-26T10:43:55.127Z,26.03
2024-01-26T10:46:24.143Z,19.17
2024-01-26T10:48:53.895Z,23.83
2024-01-26T10:51:23.372Z,18.87
2024-01-26T10:53:52.017Z,24.07
2024-01-26T10:56:19.487Z,23.30
2024-01-26T10:58:46.976Z,28.90
2024-01-26T11:01:15.525Z,18.37
2024-01-26T11:03:44.597Z,24.70
2024-01-26T11:06:15.117Z,18.77
2024-01-26T11:08:43.099Z,25.20
2024-01-26T11:11:11.345Z,22.83
2024-01-26T11:13:39.199Z,18.37
2024-01-26T11:16:08.555Z,18.33
2024-01-26T11:18:38.930Z,24.13
2024-01-26T11:21:06.747Z,22.90
2024-01-26T11:23:46.677Z,27.20
2024-01-26T11:26:18.695Z,19.67
2024-01-26T11:28:47.985Z,17.70
2024-01-26T11:31:15.600Z,21.33
2024-01-26T11:33:43.326Z,16.87
2024-01-26T11:36:14.474Z,18.40
2024-01-26T11:38:44.095Z,27.27
2024-01-26T11:41:12.717Z,17.17
2024-01-26T11:43:48.733Z,20.20
2024-01-26T11:46:18.463Z,18.83
2024-01-26T11:48:46.080Z,21.17
2024-01-26T11:51:15.543Z,19.43
2024-01-26T11:53:43.448Z,19.63
2024-01-26T11:56:11.114Z,17.33
2024-01-26T11:58:41.350Z,17.20
2024-01-26T12:01:09.028Z,19.03
2024-01-26T12:03:37.127Z,15.77
2024-01-26T12:06:05.632Z,21.13
2024-01-26T12:08:33.417Z,16.10
2024-01-26T12:11:02.240Z,16.10
2024-01-26T12:13:29.969Z,16.07
2024-01-26T12:15:59.084Z,16.17
2024-01-26T12:18:26.679Z,19.30
2024-01-26T12:20:54.304Z,17.03
2024-01-26T12:23:22.590Z,14.27
2024-01-26T12:25:56.263Z,17.67
2024-01-26T12:28:28.817Z,18.57
2024-01-26T12:30:56.429Z,22.03
2024-01-26T12:33:25.116Z,24.27
2024-01-26T12:35:56.829Z,19.67
2024-01-26T12:38:24.499Z,23.93
2024-01-26T12:40:51.958Z,22.03
2024-01-26T12:43:19.519Z,22.50
2024-01-26T12:45:55.874Z,18.87
2024-01-26T12:48:23.431Z,23.47
2024-01-26T12:50:51.033Z,23.67
2024-01-26T12:53:20.276Z,21.10
2024-01-26T12:55:48.749Z,22.43
2024-01-26T12:58:18.695Z,21.77
2024-01-26T13:00:46.211Z,27.07
2024-01-26T13:03:13.584Z,27.17
2024-01-26T13:05:41.091Z,20.17
2024-01-26T13:08:08.637Z,22.23
2024-01-26T13:10:37.123Z,19.30
2024-01-26T13:13:04.919Z,21.73
2024-01-26T13:18:00.905Z,23.60
2024-01-26T13:20:28.991Z,20.93
2024-01-26T13:22:56.569Z,21.83
2024-01-26T13:25:24.062Z,19.47
2024-01-26T13:27:51.592Z,16.80
2024-01-26T13:30:19.432Z,19.27
2024-01-26T13:32:49.604Z,16.43
2024-01-26T13:35:17.466Z,15.90
2024-01-26T13:37:45.419Z,18.27
2024-01-26T13:40:13.138Z,18.17
2024-01-26T13:42:43.140Z,21.33
2024-01-26T13:45:14.104Z,17.60
2024-01-26T13:47:44.601Z,17.43
2024-01-26T13:50:16.481Z,19.43
2024-01-26T13:52:43.987Z,20.50
2024-01-26T13:55:12.196Z,14.40
2024-01-26T13:57:44.197Z,14.03
2024-01-26T14:00:21.140Z,11.47
2024-01-26T14:02:52.558Z,11.40
2024-01-26T14:05:21.473Z,10.63
2024-01-26T14:07:51.115Z,14.70
2024-01-26T14:10:20.269Z,13.03
2024-01-26T14:12:47.662Z,15.33
2024-01-26T14:15:16.728Z,11.20
2024-01-26T14:17:48.496Z,9.77
2024-01-26T14:20:18.720Z,13.63
2024-01-26T14:22:46.125Z,13.10
2024-01-26T14:25:13.540Z,16.73
2024-01-26T14:27:41.081Z,8.03
2024-01-26T14:30:13.005Z,12.13
2024-01-26T14:32:40.600Z,11.27
2024-01-26T14:35:12.209Z,8.97
2024-01-26T14:37:44.451Z,10.93
2024-01-26T14:40:18.928Z,9.77
2024-01-26T14:42:49.141Z,8.13
2024-01-26T14:45:16.770Z,7.47
2024-01-26T14:47:47.715Z,7.53
2024-01-26T14:50:17.413Z,7.63
2024-01-26T14:52:44.903Z,8.53
2024-01-26T14:55:15.842Z,6.37
2024-01-26T14:57:46.767Z,5.10
2024-01-26T15:00:17.590Z,9.63
2024-01-26T15:02:45.520Z,5.57
2024-01-26T15:05:13.231Z,3.77
2024-01-26T15:07:43.230Z,2.97
2024-01-26T15:10:13.644Z,3.77
2024-01-26T15:12:41.144Z,1.53
2024-01-26T15:15:09.606Z,0.87
2024-01-26T15:17:37.203Z,1.30
2024-01-26T15:20:10.733Z,1.20
2024-01-26T15:22:38.341Z,1.97
2024-01-26T15:25:06.562Z,2.10
2024-01-26T15:27:34.098Z,1.20
2024-01-26T15:30:01.510Z,0.20
2024-01-26T15:32:32.369Z,2.00
2024-01-26T15:35:00.026Z,0.47
2024-01-26T15:37:27.448Z,1.70
2024-01-26T15:39:54.928Z,4.50
2024-01-26T15:42:22.958Z,2.40
2024-01-26T15:44:50.641Z,1.43
2024-01-26T15:47:18.438Z,4.33
2024-01-26T15:49:46.022Z,4.33
2024-01-26T15:52:13.469Z,2.33
2024-01-26T15:54:40.816Z,3.57
2024-01-26T15:57:09.170Z,3.17
2024-01-26T15:59:36.722Z,1.73
2024-01-26T16:02:04.532Z,3.67
2024-01-26T16:04:32.056Z,3.43
2024-01-26T16:06:59.518Z,0.90
2024-01-26T16:09:26.936Z,2.10
2024-01-26T16:11:54.485Z,2.33
2024-01-26T16:14:21.974Z,2.77
2024-01-26T16:16:49.389Z,3.10
2024-01-26T16:19:17.048Z,2.60
2024-01-26T16:21:44.431Z,4.83
2024-01-26T16:24:12.083Z,4.43
2024-01-26T16:26:39.949Z,3.37
2024-01-26T16:29:08.947Z,4.60
2024-01-26T16:31:37.305Z,3.17
2024-01-26T16:34:06.432Z,3.47
2024-01-26T16:36:35.360Z,5.13
2024-01-26T16:39:06.071Z,4.60
2024-01-26T16:41:37.996Z,3.47
2024-01-26T16:44:05.729Z,2.33
2024-01-26T16:46:33.402Z,3.30
2024-01-26T16:49:00.869Z,8.27
2024-01-26T16:51:30.193Z,3.93
2024-01-26T16:53:57.690Z,5.90
2024-01-26T16:56:25.176Z,4.83
2024-01-26T16:58:52.517Z,6.03
2024-01-26T17:01:21.225Z,3.40
2024-01-26T17:03:48.640Z,4.73
2024-01-26T17:06:16.416Z,4.53
2024-01-26T17:08:43.823Z,3.50
2024-01-26T17:11:11.705Z,3.60
2024-01-26T17:13:39.159Z,4.23
2024-01-26T17:16:08.840Z,2.97
2024-01-26T17:18:37.741Z,3.77
2024-01-26T17:21:07.238Z,4.03
2024-01-26T17:23:37.483Z,3.03
2024-01-26T17:26:05.616Z,3.10
2024-01-26T17:28:33.138Z,3.73
2024-01-26T17:31:00.682Z,2.27
2024-01-26T17:33:28.223Z,3.70
2024-01-26T17:35:55.833Z,3.93
2024-01-26T17:38:23.422Z,3.13
2024-01-26T17:40:50.760Z,2.00
2024-01-26T17:43:18.126Z,3.00
2024-01-26T17:45:45.626Z,7.00
2024-01-26T17:48:13.416Z,3.50
2024-01-26T17:50:41.087Z,6.10
2024-01-26T17:53:08.643Z,2.20
2024-01-26T17:55:41.028Z,2.77
2024-01-26T17:58:10.631Z,5.30
2024-01-26T18:00:39.635Z,3.77
2024-01-26T18:03:08.850Z,6.07
2024-01-26T18:05:36.483Z,7.00
2024-01-26T18:08:04.267Z,4.53
2024-01-26T18:10:31.868Z,5.37
2024-01-26T18:12:59.386Z,8.73
2024-01-26T18:15:26.875Z,6.67
2024-01-26T18:17:54.486Z,9.13
2024-01-26T18:20:22.341Z,5.00
2024-01-26T18:22:49.831Z,6.30
2024-01-26T18:25:17.623Z,9.17
2024-01-26T18:27:45.169Z,4.93
2024-01-26T18:30:13.894Z,9.23
2024-01-26T18:32:41.587Z,8.00
2024-01-26T18:35:11.069Z,10.40
2024-01-26T18:37:38.943Z,7.80
2024-01-26T18:40:10.390Z,12.13
2024-01-26T18:42:37.963Z,8.57
2024-01-26T18:45:06.787Z,6.87
2024-01-26T18:47:34.184Z,12.50
2024-01-26T18:50:01.859Z,9.30
2024-01-26T18:52:30.858Z,8.97
2024-01-26T18:54:58.162Z,9.07
2024-01-26T18:57:25.570Z,7.50
2024-01-26T18:59:53.857Z,9.97
2024-01-26T19:02:21.650Z,7.90
2024-01-26T19:04:49.452Z,13.90
2024-01-26T19:07:17.024Z,10.13
2024-01-26T19:09:44.481Z,17.53
2024-01-26T19:12:12.028Z,12.17
2024-01-26T19:14:39.877Z,15.37
2024-01-26T19:17:08.919Z,11.87
2024-01-26T19:19:40.082Z,12.77
2024-01-26T19:22:07.792Z,10.67
2024-01-26T19:24:35.916Z,13.47
2024-01-26T19:27:05.962Z,18.97
2024-01-26T19:29:36.252Z,13.00
2024-01-26T19:32:04.410Z,12.57
2024-01-26T19:34:33.195Z,16.83
2024-01-26T19:37:02.706Z,13.73
2024-01-26T19:39:30.282Z,14.93
2024-01-26T19:41:58.656Z,21.27
2024-01-26T19:44:26.055Z,11.87
2024-01-26T19:46:53.578Z,14.23
2024-01-26T19:49:21.732Z,12.40
2024-01-26T19:51:52.451Z,11.30
2024-01-26T19:54:20.033Z,15.67
2024-01-26T19:56:47.537Z,16.17
2024-01-26T19:59:15.350Z,17.30
2024-01-26T20:01:43.785Z,13.57
2024-01-26T20:04:11.603Z,13.17
2024-01-26T20:06:39.419Z,12.70
2024-01-26T20:09:07.625Z,15.23
2024-01-26T20:11:36.402Z,14.93
2024-01-26T20:14:03.963Z,15.40
2024-01-26T20:16:31.642Z,19.00
2024-01-26T20:18:59.197Z,16.63
2024-01-26T20:21:26.968Z,17.67
2024-01-26T20:23:55.481Z,17.70
2024-01-26T20:26:24.648Z,16.07
2024-01-26T20:28:52.522Z,22.67
2024-01-26T20:31:21.617Z,19.37
2024-01-26T20:33:49.254Z,10.80
2024-01-26T20:36:17.246Z,11.30
2024-01-26T20:38:46.111Z,15.77
2024-01-26T20:41:13.726Z,12.20
2024-01-26T20:43:41.371Z,14.40
2024-01-26T20:46:10.235Z,12.57
2024-01-26T20:48:39.155Z,20.57
2024-01-26T20:51:06.831Z,21.63
2024-01-26T20:53:34.531Z,15.60
2024-01-26T20:56:01.990Z,22.40
2024-01-26T20:58:29.537Z,18.30
2024-01-26T21:00:58.040Z,18.00
2024-01-26T21:03:25.687Z,20.20
2024-01-26T21:05:53.346Z,18.50
2024-01-26T21:08:21.046Z,18.33
2024-01-26T21:10:50.107Z,21.20
2024-01-26T21:13:18.229Z,22.57
2024-01-26T21:15:46.595Z,21.63
2024-01-26T21:18:16.881Z,22.47
2024-01-26T21:20:44.734Z,19.70
2024-01-26T21:23:12.189Z,15.20
2024-01-26T21:25:39.866Z,19.13
2024-01-26T21:28:07.813Z,22.10
2024-01-26T21:30:35.577Z,19.23
2024-01-26T21:33:05.749Z,16.20
2024-01-26T21:35:33.511Z,20.97
2024-01-26T21:38:01.041Z,24.13
2024-01-26T21:40:28.604Z,20.30
2024-01-26T21:42:56.114Z,19.27
2024-01-26T21:45:25.096Z,18.67
2024-01-26T21:47:52.833Z,21.23
2024-01-26T21:50:20.560Z,22.83
2024-01-26T21:52:50.014Z,18.50
2024-01-26T21:55:17.964Z,22.23
2024-01-26T21:57:45.392Z,26.73
2024-01-26T22:00:14.521Z,23.43
2024-01-26T22:02:42.034Z,25.83
2024-01-26T22:05:13.162Z,21.03
2024-01-26T22:07:41.082Z,27.07
2024-01-26T22:10:09.567Z,15.90
2024-01-26T22:12:37.087Z,23.07
2024-01-26T22:15:06.312Z,20.43
2024-01-26T22:17:34.482Z,20.00
2024-01-26T22:20:02.550Z,18.43
2024-01-26T22:22:30.019Z,19.00
2024-01-26T22:24:58.113Z,21.10
2024-01-26T22:27:25.693Z,15.33
2024-01-26T22:29:56.800Z,16.37
2024-01-26T22:32:24.427Z,24.07
2024-01-26T22:34:52.314Z,13.07
2024-01-26T22:37:19.924Z,18.73
2024-01-26T22:39:50.381Z,20.73
2024-01-26T22:42:17.888Z,10.40
2024-01-26T22:44:45.339Z,17.50
2024-01-26T22:47:12.747Z,22.50
2024-01-26T22:49:40.241Z,17.00
2024-01-26T22:52:07.934Z,16.30
2024-01-26T22:54:35.322Z,15.50
2024-01-26T22:57:03.695Z,22.40
2024-01-26T22:59:31.162Z,16.33
2024-01-26T23:01:58.468Z,23.13
2024-01-26T23:04:25.969Z,17.13
2024-01-26T23:06:53.549Z,20.50
2024-01-26T23:09:21.169Z,20.13
2024-01-26T23:11:48.704Z,19.97
2024-01-26T23:14:16.177Z,18.27
2024-01-26T23:16:43.697Z,22.23
2024-01-26T23:19:11.410Z,24.13
2024-01-26T23:21:38.868Z,21.80
2024-01-26T23:24:08.142Z,14.70
2024-01-26T23:26:35.569Z,19.60
2024-01-26T23:29:02.929Z,15.40
2024-01-26T23:31:30.442Z,27.30
2024-01-26T23:33:57.976Z,20.20
2024-01-26T23:36:25.571Z,12.50
2024-01-26T23:38:54.099Z,21.87
2024-01-26T23:41:21.539Z,23.37
2024-01-26T23:43:48.964Z,20.80
2024-01-26T23:46:16.953Z,20.90
2024-01-26T23:48:44.662Z,18.07
2024-01-26T23:51:12.434Z,25.53
2024-01-26T23:53:39.795Z,19.03
2024-01-26T23:56:07.664Z,20.53
2024-01-26T23:58:35.021Z,12.87
